Time;durP1;ratioP1;P1;durP2;ratioP2;P2;SDS_P1;SDS_P2;PMS_P1;PMS_P2;Temp;Humidity;BMP_temperature;BMP_pressure;BME280_temperature;BME280_humidity;BME280_pressure;Samples;Min_cycle;Max_cycle;Signal;HPM_P1;HPM_P2
2022/09/22 00:00:31;;;;;;;30.17;28.30;;;;;;;15.65;54.61;102386.34;5025678;28;20049;-78
2022/09/22 00:02:59;;;;;;;29.95;28.35;;;;;;;15.64;54.61;102380.06;5032035;28;20451;-79
2022/09/22 00:05:25;;;;;;;29.25;27.35;;;;;;;15.61;54.72;102379.72;5028407;28;20858;-78
2022/09/22 00:07:52;;;;;;;29.35;27.83;;;;;;;15.59;54.56;102367.16;5012382;28;20042;-78
2022/09/22 00:10:21;;;;;;;29.33;27.73;;;;;;;15.57;54.77;102373.91;5021875;28;20053;-79
2022/09/22 00:12:48;;;;;;;30.75;29.05;;;;;;;15.55;54.60;102368.72;5021287;28;20051;-78
2022/09/22 00:15:15;;;;;;;29.42;27.80;;;;;;;15.53;54.55;102373.56;5020417;28;20037;-79
2022/09/22 00:17:41;;;;;;;29.08;27.58;;;;;;;15.51;54.71;102367.50;5020505;28;20462;-77
2022/09/22 00:20:07;;;;;;;30.38;28.48;;;;;;;15.51;54.98;102372.97;5042171;28;20033;-78
2022/09/22 00:22:32;;;;;;;29.25;27.60;;;;;;;15.49;54.80;102371.53;5013116;28;20112;-77
2022/09/22 00:24:58;;;;;;;29.17;27.67;;;;;;;15.46;54.76;102359.22;5034991;28;20071;-78
2022/09/22 00:27:24;;;;;;;28.63;27.02;;;;;;;15.45;54.32;102368.47;5018944;28;20038;-78
2022/09/22 00:29:50;;;;;;;28.85;27.35;;;;;;;15.44;54.56;102365.97;5040404;28;20040;-81
2022/09/22 00:32:17;;;;;;;29.38;27.67;;;;;;;15.42;54.43;102368.09;5030660;28;20486;-79
2022/09/22 00:34:43;;;;;;;30.83;28.35;;;;;;;15.40;54.65;102367.53;5020744;28;20056;-77
2022/09/22 00:37:09;;;;;;;30.25;28.23;;;;;;;15.38;54.68;102370.47;5035426;28;20052;-77
2022/09/22 00:39:35;;;;;;;27.58;25.20;;;;;;;15.36;54.44;102364.44;5031458;28;20033;-77
2022/09/22 00:42:02;;;;;;;27.95;26.25;;;;;;;15.35;54.71;102360.06;5029932;28;20048;-78
2022/09/22 00:44:43;;;;;;;28.45;26.75;;;;;;;15.33;54.64;102367.63;5046477;28;20036;-79
2022/09/22 00:47:33;;;;;;;29.63;27.77;;;;;;;15.29;54.70;102361.81;5062630;28;20033;-79
2022/09/22 00:50:07;;;;;;;28.52;26.92;;;;;;;15.28;54.64;102367.50;5032653;28;20041;-79
2022/09/22 00:52:52;;;;;;;28.25;26.65;;;;;;;15.26;54.72;102358.72;5018625;28;20037;-80
2022/09/22 00:55:49;;;;;;;29.98;28.05;;;;;;;15.23;54.57;102359.22;5021531;28;20040;-79
2022/09/22 00:58:24;;;;;;;29.88;27.63;;;;;;;15.20;54.53;102355.06;5025191;28;20069;-79
2022/09/22 01:00:50;;;;;;;27.73;26.15;;;;;;;15.18;54.53;102354.47;5012854;28;20471;-79
2022/09/22 01:03:19;;;;;;;28.00;26.30;;;;;;;15.18;54.40;102353.63;5010745;28;20033;-78
2022/09/22 01:05:46;;;;;;;27.92;26.30;;;;;;;15.15;54.37;102352.22;5019124;28;20120;-78
2022/09/22 01:08:12;;;;;;;28.45;26.80;;;;;;;15.13;54.35;102348.88;5013211;28;20095;-78
2022/09/22 01:10:38;;;;;;;27.65;25.75;;;;;;;15.11;54.44;102349.09;4998315;28;20133;-78
2022/09/22 01:13:16;;;;;;;29.77;28.02;;;;;;;15.09;54.38;102345.81;5033903;28;20124;-79
2022/09/22 01:16:09;;;;;;;27.63;26.07;;;;;;;15.07;54.47;102345.22;5030418;28;20116;-79
2022/09/22 01:18:49;;;;;;;28.05;26.35;;;;;;;15.05;54.39;102341.91;5060834;28;20087;-79
2022/09/22 01:21:20;;;;;;;29.17;27.23;;;;;;;15.03;54.30;102337.75;5011811;28;20108;-77
2022/09/22 01:23:46;;;;;;;28.75;26.75;;;;;;;15.01;54.29;102337.97;5025737;28;20496;-77
2022/09/22 01:26:25;;;;;;;28.63;26.85;;;;;;;14.99;54.31;102331.09;5031217;28;20033;-76
2022/09/22 01:29:12;;;;;;;27.25;25.70;;;;;;;14.98;54.45;102330.28;5031083;28;20045;-77
2022/09/22 01:31:51;;;;;;;28.17;26.40;;;;;;;14.96;54.33;102326.13;5026962;28;20046;-79
2022/09/22 01:34:32;;;;;;;28.83;27.02;;;;;;;14.94;54.22;102323.63;5037899;28;20040;-78
2022/09/22 01:37:11;;;;;;;28.33;26.63;;;;;;;14.91;54.28;102327.66;5028597;28;20171;-78
2022/09/22 01:39:42;;;;;;;28.52;26.83;;;;;;;14.89;54.42;102324.38;5035664;28;20499;-79
2022/09/22 01:42:17;;;;;;;29.02;27.00;;;;;;;14.87;54.15;102326.47;5059012;28;20069;-78
2022/09/22 01:44:46;;;;;;;27.75;26.15;;;;;;;14.86;54.08;102318.53;5019591;28;20138;-78
2022/09/22 01:47:21;;;;;;;28.83;27.02;;;;;;;14.84;54.34;102313.34;5035261;28;20036;-78
2022/09/22 01:50:00;;;;;;;28.80;27.10;;;;;;;14.83;54.53;102328.00;5014884;28;20389;-78
2022/09/22 01:52:29;;;;;;;28.10;26.25;;;;;;;14.82;54.17;102317.38;5027842;28;20488;-79
2022/09/22 01:55:02;;;;;;;27.77;26.08;;;;;;;14.80;54.44;102311.31;5028782;28;20037;-79
2022/09/22 01:57:47;;;;;;;28.85;27.05;;;;;;;14.79;54.02;102315.09;5014659;28;20026;-79
2022/09/22 02:00:13;;;;;;;28.90;26.90;;;;;;;14.76;54.38;102310.94;5015539;28;20033;-79
2022/09/22 02:02:49;;;;;;;29.38;27.45;;;;;;;14.75;54.16;102308.47;5024024;28;20041;-79
2022/09/22 02:05:22;;;;;;;29.15;27.23;;;;;;;14.73;54.66;102311.41;5019750;28;20065;-79
2022/09/22 02:07:52;;;;;;;28.60;26.80;;;;;;;14.71;54.35;102303.47;5040805;28;20501;-79
2022/09/22 02:10:23;;;;;;;29.10;27.20;;;;;;;14.70;54.10;102309.16;5015009;28;20033;-78
2022/09/22 02:12:49;;;;;;;28.35;26.67;;;;;;;14.69;54.44;102302.03;5024899;28;20164;-78
2022/09/22 02:18:09;;;;;;;27.80;26.10;;;;;;;14.64;54.38;102296.47;5028814;28;20103;-80
2022/09/22 02:20:35;;;;;;;27.42;25.73;;;;;;;14.63;54.14;102301.09;5026011;28;20055;-80
2022/09/22 02:23:01;;;;;;;27.77;26.08;;;;;;;14.61;54.17;102297.75;5013941;28;20037;-77
2022/09/22 02:25:27;;;;;;;28.38;26.38;;;;;;;14.59;54.33;102290.91;5010991;28;20036;-77
2022/09/22 02:27:55;;;;;;;28.48;26.67;;;;;;;14.57;54.05;102285.72;5010921;28;20501;-77
2022/09/22 02:30:22;;;;;;;29.42;27.25;;;;;;;14.57;54.36;102284.88;5000012;28;20037;-77
2022/09/22 02:32:50;;;;;;;27.90;26.10;;;;;;;14.55;54.23;102276.94;5026415;28;20413;-78
2022/09/22 02:35:16;;;;;;;30.30;28.05;;;;;;;14.54;54.42;102277.16;5032992;28;20090;-79
2022/09/22 02:38:04;;;;;;;28.95;26.98;;;;;;;14.52;54.22;102276.56;5035686;28;20116;-78
2022/09/22 02:40:57;;;;;;;26.95;25.35;;;;;;;14.49;54.17;102273.25;5040102;28;20041;-78
2022/09/22 02:43:49;;;;;;;29.38;27.48;;;;;;;14.48;54.15;102265.31;5046311;28;20092;-80
2022/09/22 02:46:24;;;;;;;28.17;26.50;;;;;;;14.45;54.43;102269.31;5045270;28;20608;-80
2022/09/22 02:48:56;;;;;;;29.58;27.48;;;;;;;14.43;54.30;102270.59;5023202;28;20030;-78
2022/09/22 02:51:21;;;;;;;28.92;27.02;;;;;;;14.41;54.16;102264.56;5030296;28;20041;-78
2022/09/22 02:53:47;;;;;;;29.38;27.55;;;;;;;14.40;54.28;102271.91;5012857;28;20485;-78
2022/09/22 02:56:12;;;;;;;27.95;26.15;;;;;;;14.39;54.33;102266.69;5013349;28;20038;-78
2022/09/22 02:58:38;;;;;;;28.20;26.40;;;;;;;14.36;54.46;102262.53;5020668;28;20044;-77
2022/09/22 03:01:03;;;;;;;28.17;26.38;;;;;;;14.36;54.10;102259.00;5006463;28;20155;-77
2022/09/22 03:03:29;;;;;;;30.17;28.27;;;;;;;14.35;54.35;102260.06;5045894;28;20030;-77
2022/09/22 03:05:54;;;;;;;27.63;25.83;;;;;;;14.33;54.10;102256.75;5021054;28;20042;-78
2022/09/22 03:08:19;;;;;;;28.80;26.95;;;;;;;14.31;54.40;102259.69;5033604;28;20492;-77
2022/09/22 03:10:45;;;;;;;27.55;25.85;;;;;;;14.29;54.37;102259.09;5034601;28;20436;-76
2022/09/22 03:13:10;;;;;;;27.73;26.02;;;;;;;14.27;54.43;102261.22;5046987;28;20034;-79
2022/09/22 03:15:36;;;;;;;28.00;26.20;;;;;;;14.26;54.17;102257.69;5015824;28;20128;-76
2022/09/22 03:18:01;;;;;;;27.63;25.88;;;;;;;14.25;54.07;102253.28;5032561;28;20040;-76
2022/09/22 03:20:26;;;;;;;29.50;27.40;;;;;;;14.22;54.23;102253.75;5029648;28;20133;-77
2022/09/22 03:22:52;;;;;;;27.42;25.52;;;;;;;14.20;54.36;102250.44;5029278;28;20057;-77
2022/09/22 03:25:17;;;;;;;26.35;24.77;;;;;;;14.19;54.23;102248.78;5022135;28;20120;-77
2022/09/22 03:27:43;;;;;;;28.35;26.45;;;;;;;14.18;54.14;102252.53;5032384;28;20109;-77
2022/09/22 03:30:09;;;;;;;27.50;25.65;;;;;;;14.18;54.33;102251.72;5029845;28;20117;-77
2022/09/22 03:32:34;;;;;;;27.40;25.50;;;;;;;14.16;54.16;102245.69;5014988;28;20374;-77
2022/09/22 03:35:00;;;;;;;27.70;26.00;;;;;;;14.14;54.33;102245.94;5016575;28;20106;-78
2022/09/22 03:37:25;;;;;;;28.50;26.48;;;;;;;14.13;54.37;102254.28;5032855;28;20033;-77
2022/09/22 03:39:50;;;;;;;28.48;26.55;;;;;;;14.11;54.22;102249.09;5014705;28;20481;-77
2022/09/22 03:42:16;;;;;;;28.73;26.83;;;;;;;14.09;54.08;102248.50;5015405;28;20037;-78
2022/09/22 03:44:42;;;;;;;28.00;26.17;;;;;;;14.07;54.35;102243.28;5054164;28;20482;-78
2022/09/22 03:47:08;;;;;;;26.95;25.17;;;;;;;14.04;54.04;102243.75;5032523;28;20041;-78
2022/09/22 03:49:33;;;;;;;28.00;26.05;;;;;;;14.03;54.26;102241.25;5036882;28;20039;-77
2022/09/22 03:51:58;;;;;;;28.05;25.92;;;;;;;14.02;54.16;102234.16;5016904;28;20038;-77
2022/09/22 03:54:24;;;;;;;28.02;26.20;;;;;;;14.01;54.14;102235.22;5033179;28;20036;-79
2022/09/22 03:56:50;;;;;;;27.85;26.00;;;;;;;13.99;54.21;102232.75;5035211;28;20076;-78
2022/09/22 03:59:15;;;;;;;27.70;25.88;;;;;;;13.97;54.35;102234.84;5030004;28;20461;-77
2022/09/22 04:01:41;;;;;;;28.50;26.65;;;;;;;13.96;54.34;102237.78;5022405;28;20090;-80
2022/09/22 04:04:06;;;;;;;26.83;25.02;;;;;;;13.94;54.34;102237.22;5014437;28;20480;-77
2022/09/22 04:06:32;;;;;;;28.25;26.00;;;;;;;13.94;54.42;102239.94;5033436;28;20064;-77
2022/09/22 04:08:58;;;;;;;27.13;25.38;;;;;;;13.91;54.05;102233.06;5031479;28;20371;-77
2022/09/22 04:11:23;;;;;;;29.50;27.40;;;;;;;13.91;54.28;102234.94;5031786;28;20124;-78
2022/09/22 04:13:49;;;;;;;28.58;26.67;;;;;;;13.88;54.08;102230.78;5031883;28;20037;-77
2022/09/22 04:16:16;;;;;;;28.75;26.67;;;;;;;13.88;54.08;102238.09;5038294;28;20034;-78
2022/09/22 04:18:41;;;;;;;28.20;26.30;;;;;;;13.84;54.39;102227.72;5024861;28;20033;-77
2022/09/22 04:21:07;;;;;;;28.33;26.42;;;;;;;13.84;54.32;102232.31;5030995;28;20448;-77
2022/09/22 04:23:33;;;;;;;30.00;27.80;;;;;;;13.82;54.14;102227.09;5019090;28;20030;-77
2022/09/22 04:25:58;;;;;;;27.30;25.50;;;;;;;13.81;54.20;102221.91;5025731;28;20036;-79
2022/09/22 04:28:24;;;;;;;28.48;26.55;;;;;;;13.80;54.30;102229.22;5033981;28;20041;-79
2022/09/22 04:30:49;;;;;;;27.98;26.13;;;;;;;13.78;54.21;102223.19;5047179;28;20033;-78
2022/09/22 04:33:15;;;;;;;28.25;26.35;;;;;;;13.77;54.22;102224.25;5045344;28;20041;-78
2022/09/22 04:35:40;;;;;;;28.17;26.05;;;;;;;13.75;54.06;102220.91;5017308;28;20251;-76
2022/09/22 04:38:06;;;;;;;27.65;25.95;;;;;;;13.73;54.28;102228.44;5032545;28;20086;-77
2022/09/22 04:40:32;;;;;;;28.77;26.92;;;;;;;13.72;54.21;102218.66;5014154;28;20465;-77
2022/09/22 04:42:58;;;;;;;28.55;26.85;;;;;;;13.70;54.15;102218.06;5013913;28;20034;-78
2022/09/22 04:45:23;;;;;;;28.48;26.52;;;;;;;13.70;54.10;102219.94;5031118;28;20047;-77
2022/09/22 04:47:50;;;;;;;27.98;26.30;;;;;;;13.68;54.38;102219.34;5032012;28;20366;-77
2022/09/22 04:50:18;;;;;;;28.42;26.50;;;;;;;13.66;54.27;102219.59;5031220;28;20088;-78
2022/09/22 04:52:51;;;;;;;26.30;24.50;;;;;;;13.65;54.11;102217.91;5031781;28;20039;-78
2022/09/22 04:55:17;;;;;;;28.95;27.02;;;;;;;13.64;54.10;102227.13;5030565;28;20063;-77
2022/09/22 04:58:01;;;;;;;29.63;27.52;;;;;;;13.60;54.09;102229.44;5026780;28;20042;-77
2022/09/22 05:00:28;;;;;;;27.15;25.30;;;;;;;13.59;54.14;102222.38;5035901;28;20064;-78
2022/09/22 05:02:53;;;;;;;28.67;26.35;;;;;;;13.58;54.14;102228.00;5022977;28;20068;-78
2022/09/22 05:05:19;;;;;;;24.77;23.30;;;;;;;13.56;53.93;102225.53;5006648;28;20057;-79
2022/09/22 05:07:48;;;;;;;29.45;27.55;;;;;;;13.55;54.25;102229.28;5032007;28;20036;-79
2022/09/22 05:10:19;;;;;;;25.88;24.25;;;;;;;13.52;54.07;102224.31;5021245;28;20044;-78
2022/09/22 05:12:45;;;;;;;27.38;25.30;;;;;;;13.52;54.10;102234.34;5010872;28;20034;-77
2022/09/22 05:15:12;;;;;;;27.77;25.90;;;;;;;13.50;53.94;102229.13;5011303;28;20069;-78
2022/09/22 05:17:45;;;;;;;27.00;25.30;;;;;;;13.49;54.00;102232.94;5030641;28;20092;-76
2022/09/22 05:20:11;;;;;;;26.35;24.75;;;;;;;13.47;54.28;102226.88;5038980;28;20034;-76
2022/09/22 05:22:40;;;;;;;28.00;26.15;;;;;;;13.47;54.06;102228.78;5013990;28;20037;-77
2022/09/22 05:25:08;;;;;;;25.98;24.17;;;;;;;13.45;54.15;102228.16;5013605;28;20030;-77
2022/09/22 05:27:33;;;;;;;28.58;26.65;;;;;;;13.44;53.71;102227.34;5013803;28;20036;-78
2022/09/22 05:29:58;;;;;;;26.30;24.63;;;;;;;13.41;54.12;102228.63;5039283;28;20389;-76
2022/09/22 05:32:24;;;;;;;26.65;24.98;;;;;;;13.40;54.23;102232.38;5031352;28;20070;-77
2022/09/22 05:34:49;;;;;;;28.67;25.90;;;;;;;13.39;54.04;102238.88;5030035;28;20120;-77
2022/09/22 05:37:14;;;;;;;26.98;25.23;;;;;;;13.38;54.07;102225.50;5030045;28;20451;-76
2022/09/22 05:39:40;;;;;;;26.50;24.67;;;;;;;13.36;54.17;102233.91;5037466;28;20045;-78
2022/09/22 05:42:05;;;;;;;25.48;23.85;;;;;;;13.35;53.98;102237.66;5035454;28;20493;-75
2022/09/22 05:44:30;;;;;;;26.13;24.58;;;;;;;13.33;54.23;102231.63;5010719;28;20057;-78
2022/09/22 05:46:56;;;;;;;28.15;26.15;;;;;;;13.32;54.04;102229.97;5011989;28;20508;-77
2022/09/22 05:49:21;;;;;;;26.48;24.77;;;;;;;13.30;54.00;102231.25;5014711;28;20029;-78
2022/09/22 05:51:47;;;;;;;27.92;26.02;;;;;;;13.29;54.17;102232.31;5013453;28;20066;-80
2022/09/22 05:54:12;;;;;;;28.38;26.02;;;;;;;13.27;54.12;102232.53;5015928;28;20053;-76
2022/09/22 05:56:38;;;;;;;28.25;26.42;;;;;;;13.22;54.02;102237.75;5036798;28;20482;-77
2022/09/22 05:59:03;;;;;;;28.42;26.42;;;;;;;13.19;54.27;102232.78;5046533;28;20041;-75
2022/09/22 06:01:29;;;;;;;25.60;23.85;;;;;;;13.17;54.35;102241.13;5034275;28;20511;-75
2022/09/22 06:03:54;;;;;;;27.58;25.88;;;;;;;13.15;54.12;102237.84;5009564;28;20030;-81
2022/09/22 06:06:20;;;;;;;27.98;26.05;;;;;;;13.12;54.08;102240.97;5012117;28;20042;-79
2022/09/22 06:08:45;;;;;;;27.30;25.45;;;;;;;13.05;54.14;102234.78;5040198;28;20159;-75
2022/09/22 06:11:10;;;;;;;27.77;25.85;;;;;;;13.00;54.20;102240.03;5032090;28;20042;-76
2022/09/22 06:13:36;;;;;;;28.48;25.77;;;;;;;12.97;54.22;102244.03;5013143;28;20045;-79
2022/09/22 06:16:02;;;;;;;27.52;24.85;;;;;;;12.96;54.21;102239.66;5032126;28;20359;-78
2022/09/22 06:18:30;;;;;;;26.88;24.58;;;;;;;12.95;54.26;102238.03;5031202;28;20045;-77
2022/09/22 06:20:56;;;;;;;26.45;24.27;;;;;;;12.94;54.15;102241.75;5033140;28;20025;-77
2022/09/22 06:23:22;;;;;;;26.92;24.98;;;;;;;12.94;54.09;102246.38;5014247;28;20475;-79
2022/09/22 06:25:47;;;;;;;28.48;26.48;;;;;;;12.94;54.17;102246.38;5030426;28;20039;-78
2022/09/22 06:28:13;;;;;;;25.17;23.55;;;;;;;12.93;54.15;102239.28;5028212;28;20428;-77
2022/09/22 06:30:39;;;;;;;29.35;26.98;;;;;;;12.93;54.28;102233.88;5040302;28;20038;-76
2022/09/22 06:33:05;;;;;;;28.52;26.10;;;;;;;12.91;54.29;102233.25;5047378;28;20568;-75
2022/09/22 06:35:36;;;;;;;28.58;26.35;;;;;;;12.91;54.25;102241.41;5034923;28;20034;-75
2022/09/22 06:38:03;;;;;;;27.70;25.13;;;;;;;12.89;54.29;102241.59;5014252;28;20029;-74
2022/09/22 06:40:31;;;;;;;27.80;25.73;;;;;;;12.89;54.12;102243.50;5033653;28;20033;-74
2022/09/22 06:42:57;;;;;;;28.52;25.65;;;;;;;12.87;54.30;102235.56;5044972;28;20036;-77
2022/09/22 06:45:26;;;;;;;28.45;25.30;;;;;;;12.86;54.46;102231.19;5054305;28;20040;-76
2022/09/22 06:48:01;;;;;;;28.55;26.45;;;;;;;12.86;54.57;102230.38;5017478;28;20038;-74
2022/09/22 06:50:31;;;;;;;28.63;26.50;;;;;;;12.85;54.41;102237.69;5029736;28;20095;-74
2022/09/22 06:53:01;;;;;;;26.83;24.98;;;;;;;12.85;54.50;102236.84;5034456;28;20044;-76
2022/09/22 06:55:30;;;;;;;28.33;25.83;;;;;;;12.84;54.56;102237.91;5046637;28;20108;-74
2022/09/22 06:58:00;;;;;;;26.40;24.50;;;;;;;12.83;54.56;102234.38;5016516;28;20092;-74
2022/09/22 07:00:35;;;;;;;28.75;25.52;;;;;;;12.82;54.40;102238.09;5015564;28;20394;-75
2022/09/22 07:03:25;;;;;;;26.25;24.35;;;;;;;12.82;54.64;102231.88;5013659;28;20064;-74
2022/09/22 07:06:09;;;;;;;29.38;26.25;;;;;;;12.81;54.78;102235.63;5020819;28;20073;-76
2022/09/22 07:08:38;;;;;;;28.38;26.30;;;;;;;12.80;54.75;102239.38;5013655;28;20565;-77
2022/09/22 07:11:07;;;;;;;26.05;23.95;;;;;;;12.78;54.73;102242.34;5032784;28;20032;-74
2022/09/22 07:13:38;;;;;;;28.70;26.20;;;;;;;12.77;54.92;102236.09;5033485;28;20486;-76
2022/09/22 07:16:14;;;;;;;29.63;26.90;;;;;;;12.77;54.81;102235.22;5032034;28;20037;-75
2022/09/22 07:18:45;;;;;;;31.55;26.60;;;;;;;12.76;54.65;102239.81;5015922;28;20473;-74
2022/09/22 07:21:11;;;;;;;25.92;24.05;;;;;;;12.76;54.81;102237.13;5033837;28;20061;-75
2022/09/22 07:23:36;;;;;;;28.27;26.13;;;;;;;12.75;54.89;102232.75;5037759;28;20127;-75
2022/09/22 07:26:08;;;;;;;27.20;25.13;;;;;;;12.75;54.92;102230.03;5021582;28;20516;-75
2022/09/22 07:28:35;;;;;;;27.67;25.58;;;;;;;12.74;54.74;102230.25;5029513;28;20207;-75
2022/09/22 07:31:04;;;;;;;28.27;25.83;;;;;;;12.75;55.01;102229.19;5032881;28;20029;-75
2022/09/22 07:33:31;;;;;;;26.52;24.27;;;;;;;12.73;54.93;102229.44;5035132;28;20030;-74
2022/09/22 07:36:07;;;;;;;31.13;28.70;;;;;;;12.74;54.87;102225.66;5014120;28;20037;-74
2022/09/22 07:38:39;;;;;;;28.27;26.23;;;;;;;12.74;54.99;102228.38;5033225;28;20072;-74
2022/09/22 07:41:08;;;;;;;27.58;25.58;;;;;;;12.73;55.08;102236.75;5033242;28;20029;-74
2022/09/22 07:43:34;;;;;;;29.60;27.05;;;;;;;12.72;55.08;102229.63;5035793;28;20044;-75
2022/09/22 07:46:00;;;;;;;27.25;25.23;;;;;;;12.73;55.10;102229.44;5046752;28;20116;-75
2022/09/22 07:48:36;;;;;;;27.27;25.13;;;;;;;12.73;55.15;102229.44;5021784;28;20075;-74
2022/09/22 07:51:21;;;;;;;27.27;24.30;;;;;;;12.73;55.20;102231.31;5031516;28;20047;-75
2022/09/22 07:54:05;;;;;;;28.73;26.00;;;;;;;12.73;55.11;102226.72;5033917;28;20041;-75
2022/09/22 07:56:31;;;;;;;26.20;24.10;;;;;;;12.72;55.08;102222.31;5013729;28;20117;-74
2022/09/22 07:58:57;;;;;;;27.10;24.92;;;;;;;12.73;55.25;102217.75;5017094;28;20152;-75
2022/09/22 08:01:25;;;;;;;26.10;24.00;;;;;;;12.73;55.16;102217.75;5012108;28;20081;-75
2022/09/22 08:03:51;;;;;;;29.73;27.38;;;;;;;12.73;55.21;102215.88;5023950;28;20044;-75
2022/09/22 08:06:18;;;;;;;27.02;25.08;;;;;;;12.73;55.34;102213.16;5013333;28;20042;-75
2022/09/22 08:08:52;;;;;;;28.67;26.30;;;;;;;12.74;55.29;102217.53;5015066;28;20037;-80
2022/09/22 08:11:22;;;;;;;29.75;27.35;;;;;;;12.75;55.28;102218.34;5029824;28;20472;-76
2022/09/22 08:13:52;;;;;;;31.40;28.75;;;;;;;12.75;55.54;102211.06;5043776;28;20038;-76
2022/09/22 08:16:21;;;;;;;29.75;26.98;;;;;;;12.76;55.45;102209.19;5013192;28;20057;-75
2022/09/22 08:18:55;;;;;;;30.60;27.92;;;;;;;12.76;55.55;102209.19;5020310;28;20136;-76
2022/09/22 08:21:34;;;;;;;29.60;27.38;;;;;;;12.77;55.69;102205.41;5031415;28;20090;-76
2022/09/22 08:24:00;;;;;;;31.75;29.00;;;;;;;12.77;55.74;102202.69;5028286;28;20403;-77
2022/09/22 08:26:26;;;;;;;28.55;26.48;;;;;;;12.79;55.73;102206.03;5014205;28;20034;-76
2022/09/22 08:28:53;;;;;;;34.97;31.25;;;;;;;12.79;55.80;102203.31;5013885;28;20359;-76
2022/09/22 08:31:19;;;;;;;29.23;26.80;;;;;;;12.80;56.13;102210.41;5026126;28;20050;-77
2022/09/22 08:33:46;;;;;;;31.63;29.00;;;;;;;12.81;56.15;102203.09;5037649;28;20436;-76
2022/09/22 08:36:11;;;;;;;30.85;28.23;;;;;;;12.83;56.82;102203.72;5012982;28;20034;-78
2022/09/22 08:38:37;;;;;;;31.38;28.80;;;;;;;12.83;56.74;102201.00;5028570;28;20029;-76
2022/09/22 08:41:23;;;;;;;30.23;27.98;;;;;;;12.84;56.90;102197.22;5030134;28;20386;-77
2022/09/22 08:43:54;;;;;;;31.63;28.77;;;;;;;12.83;57.06;102199.13;5027456;28;20038;-76
2022/09/22 08:46:42;;;;;;;31.15;28.65;;;;;;;12.85;57.56;102194.31;5029864;28;20026;-76
2022/09/22 08:52:37;;;;;;;30.40;27.90;;;;;;;12.85;57.18;102199.72;5011014;28;20045;-77
2022/09/22 08:55:06;;;;;;;30.63;28.23;;;;;;;12.86;57.35;102198.66;5022665;28;20083;-75
2022/09/22 08:57:52;;;;;;;28.40;26.25;;;;;;;12.88;57.44;102198.44;5028667;28;20413;-78
2022/09/22 09:00:19;;;;;;;26.27;24.15;;;;;;;12.89;57.50;102200.09;5029569;28;20026;-75
2022/09/22 09:02:59;;;;;;;27.08;24.88;;;;;;;12.90;57.46;102205.31;5032102;28;20409;-76
2022/09/22 09:05:49;;;;;;;27.25;24.85;;;;;;;12.91;57.70;102201.53;5038577;28;20083;-76
2022/09/22 09:08:39;;;;;;;24.00;21.83;;;;;;;12.92;57.57;102208.59;5015856;28;20034;-76
2022/09/22 09:11:23;;;;;;;26.17;24.15;;;;;;;12.94;57.76;102206.50;5012802;28;20052;-77
2022/09/22 09:14:14;;;;;;;25.20;23.33;;;;;;;12.95;57.64;102210.91;5028388;28;20053;-79
2022/09/22 09:16:59;;;;;;;24.33;22.63;;;;;;;12.96;57.51;102204.41;5009436;28;20038;-77
2022/09/22 09:19:39;;;;;;;25.52;23.52;;;;;;;12.98;57.73;102205.03;5010247;28;20032;-81
2022/09/22 09:22:14;;;;;;;25.48;23.42;;;;;;;12.99;57.64;102212.09;5021107;28;20030;-78
2022/09/22 09:24:47;;;;;;;26.25;24.25;;;;;;;13.02;57.58;102207.28;5027200;28;20386;-77
2022/09/22 09:27:19;;;;;;;23.75;22.02;;;;;;;13.03;57.58;102207.06;5036559;28;20051;-76
2022/09/22 09:29:59;;;;;;;26.10;23.70;;;;;;;13.06;57.61;102203.06;5028786;28;20102;-74
2022/09/22 09:32:49;;;;;;;23.70;22.20;;;;;;;13.09;57.78;102205.34;5009208;28;20077;-76
2022/09/22 09:35:23;;;;;;;25.45;23.85;;;;;;;13.12;57.53;102207.59;5041366;28;20049;-76
2022/09/22 09:37:50;;;;;;;25.08;23.27;;;;;;;13.15;57.66;102201.72;5024623;28;20038;-80
2022/09/22 09:40:19;;;;;;;23.92;22.30;;;;;;;13.17;57.59;102205.03;5014009;28;20072;-76
2022/09/22 09:42:49;;;;;;;24.75;23.13;;;;;;;13.21;57.49;102203.56;5019138;28;20079;-76
2022/09/22 09:45:19;;;;;;;23.92;22.45;;;;;;;13.23;57.38;102197.88;5030478;28;20075;-76
2022/09/22 09:48:03;;;;;;;24.52;22.83;;;;;;;13.27;57.47;102196.41;5023254;28;20037;-78
2022/09/22 09:50:30;;;;;;;24.85;23.23;;;;;;;13.27;57.47;102197.25;5043870;28;20050;-76
2022/09/22 09:52:58;;;;;;;22.58;21.27;;;;;;;13.32;57.74;102196.56;5024659;28;20097;-78
2022/09/22 09:55:24;;;;;;;22.10;20.90;;;;;;;13.34;57.32;102194.47;5034156;28;20037;-76
2022/09/22 10:00:29;;;;;;;23.08;21.77;;;;;;;13.40;57.16;102197.09;5019296;28;20114;-78
2022/09/22 10:01:01;;;;;;;22.70;21.30;;;;;;;13.45;57.18;102198.31;5015217;28;20030;-75
2022/09/22 10:03:40;;;;;;;22.10;20.80;;;;;;;13.48;56.85;102193.28;5033974;28;20037;-75
2022/09/22 10:06:09;;;;;;;23.50;22.20;;;;;;;13.51;56.94;102187.38;5024870;28;20029;-76
2022/09/22 10:08:46;;;;;;;23.23;21.58;;;;;;;13.56;56.83;102184.81;5028794;28;20073;-75
2022/09/22 10:11:13;;;;;;;24.70;23.05;;;;;;;13.60;56.71;102177.84;5031526;28;20439;-76
2022/09/22 10:13:41;;;;;;;24.75;22.83;;;;;;;13.63;56.80;102185.56;5033817;28;20030;-77
2022/09/22 10:16:18;;;;;;;24.85;23.35;;;;;;;13.69;56.79;102175.69;5038376;28;20032;-76
2022/09/22 10:18:44;;;;;;;25.08;23.58;;;;;;;13.73;56.76;102184.19;5034445;28;20025;-76
2022/09/22 10:21:15;;;;;;;26.42;24.83;;;;;;;13.77;56.32;102180.78;5014859;28;20037;-76
2022/09/22 10:23:49;;;;;;;25.67;23.90;;;;;;;13.81;56.49;102175.75;5028326;28;20029;-75
2022/09/22 10:26:19;;;;;;;24.10;22.80;;;;;;;13.84;56.45;102172.56;5036037;28;20078;-73
2022/09/22 10:28:49;;;;;;;22.77;21.27;;;;;;;13.88;56.51;102175.63;5029936;28;20055;-76
2022/09/22 10:31:25;;;;;;;24.13;22.73;;;;;;;13.91;56.18;102169.72;5032863;28;20754;-75
2022/09/22 10:33:56;;;;;;;23.45;21.83;;;;;;;13.95;56.47;102169.06;5043700;28;20040;-76
2022/09/22 10:36:24;;;;;;;23.55;22.25;;;;;;;14.00;56.00;102162.94;5042658;28;20388;-77
2022/09/22 10:38:52;;;;;;;23.93;22.63;;;;;;;14.03;56.13;102162.47;5012525;28;20038;-76
2022/09/22 10:41:24;;;;;;;24.35;22.60;;;;;;;14.06;56.11;102151.97;5031907;28;20327;-77
2022/09/22 10:44:02;;;;;;;25.77;23.95;;;;;;;14.11;55.59;102150.44;5023203;28;20062;-77
2022/09/22 10:47:05;;;;;;;23.75;22.27;;;;;;;14.15;56.14;102151.63;5033446;28;20042;-74
2022/09/22 10:49:39;;;;;;;24.92;23.52;;;;;;;14.18;55.66;102156.59;5032754;28;20419;-79
2022/09/22 10:52:29;;;;;;;26.38;24.85;;;;;;;14.24;55.60;102161.94;5032700;28;20026;-73
2022/09/22 10:55:10;;;;;;;24.80;23.40;;;;;;;14.29;55.54;102155.81;5025443;28;20063;-73
2022/09/22 10:58:06;;;;;;;24.40;23.00;;;;;;;14.33;55.31;102150.72;5013337;28;20374;-73
2022/09/22 11:00:33;;;;;;;24.45;23.10;;;;;;;14.36;55.75;102155.69;5013038;28;20497;-74
2022/09/22 11:03:44;;;;;;;24.60;23.33;;;;;;;14.37;55.61;102143.78;5013338;28;20025;-74
2022/09/22 11:12:17;;;;;;;24.17;22.70;;;;;;;14.47;54.97;102138.59;5022052;28;20396;-73
2022/09/22 11:14:47;;;;;;;24.23;22.80;;;;;;;14.50;55.34;102144.38;5030345;28;20025;-73
2022/09/22 11:17:30;;;;;;;26.88;25.38;;;;;;;14.54;55.08;102142.06;5051213;28;20416;-75
2022/09/22 11:20:21;;;;;;;25.00;23.60;;;;;;;14.58;55.49;102136.97;5013340;28;20037;-72
2022/09/22 11:22:53;;;;;;;23.65;22.45;;;;;;;14.61;55.26;102125.63;5011733;28;20034;-74
2022/09/22 11:25:28;;;;;;;24.98;23.50;;;;;;;14.64;55.67;102126.00;5019322;28;20048;-72
2022/09/22 11:28:10;;;;;;;24.98;23.45;;;;;;;14.68;55.22;102127.16;5031088;28;20033;-73
2022/09/22 11:30:53;;;;;;;25.38;23.77;;;;;;;14.73;55.92;102123.72;5032331;28;20029;-73
2022/09/22 11:33:33;;;;;;;25.73;24.35;;;;;;;14.74;55.44;102119.97;5007626;28;20053;-73
2022/09/22 11:36:15;;;;;;;24.48;23.25;;;;;;;14.79;55.54;102117.38;5048704;28;20131;-76
2022/09/22 11:39:00;;;;;;;27.30;25.70;;;;;;;14.81;55.10;102115.22;5030631;28;20111;-73